NCAR-RAP Real-Time Weather Data

Output produced by METARs form (12 May 2021  10:55 UTC)
found at http://weather.rap.ucar.edu/surface/
 
KPWM 120951Z 27008KT 10SM FEW065 FEW250 06/01 A2992 RMK AO2 SLP132 T00560006
KPWM 120851Z 27006KT 10SM FEW060 FEW250 04/01 A2990 RMK AO2 SLP125 T00440006 55001
KPWM 120751Z AUTO 26005KT 10SM CLR 06/01 A2989 RMK AO2 SLP123 T00560006
KPWM 120651Z AUTO 24006KT 10SM CLR 06/00 A2990 RMK AO2 SLP124 T00610000
KPWM 120551Z AUTO 25005KT 10SM CLR 07/00 A2990 RMK AO2 SLP125 T00670000 10122 20061 58002
KPWM 120451Z AUTO 27005KT 10SM CLR 07/01 A2990 RMK AO2 SLP126 T00670006 401720061
KPWM 120351Z 28009KT 10SM FEW080 08/01 A2991 RMK AO2 SLP128 LAST T00780011
KPWM 120251Z 28005KT 10SM FEW110 09/01 A2991 RMK AO2 SLP127 T00890006 50008
KPWM 120151Z 28005KT 10SM CLR 09/01 A2991 RMK AO2 SLP129 T00940011
KPWM 120051Z 32007KT 10SM FEW100 11/M01 A2990 RMK AO2 SLP126 T01111011
KPWM 112351Z 31008KT 10SM BKN095 OVC110 12/M02 A2988 RMK AO2 SLP119 60000 T01221022 10172 20122 53015
KPWM 112251Z 25009G30KT 10SM FEW065 BKN090 OVC110 13/M04 A2986 RMK AO2 PK WND 29031/2241 RAE2157 SLP112 P0000 T01331039
KPWM 112151Z 30011G17KT 10SM -RA SCT080 OVC100 13/01 A2986 RMK AO2 RAB47 SLP110 P0000 T01280006
KPWM 112051Z 32014G23KT 10SM SCT075 OVC100 14/00 A2984 RMK AO2 SLP104 T01390000 53000
KPWM 111951Z 30016G27KT 10SM FEW070 SCT080 BKN100 15/02 A2984 RMK AO2 PK WND 30032/1937 WSHFT 1922 SLP104 T01500017
KPWM 111942Z 30020G32KT 10SM BKN070 BKN090 14/02 A2984 RMK AO2 PK WND 30032/1937 WSHFT 1922 T01390017